createdAt,value
2023-04-27T00:02:24.136Z,96335.78
2023-04-27T00:04:53.176Z,96337.69
2023-04-27T00:07:21.662Z,96338.25
2023-04-27T00:09:51.912Z,96336.34
2023-04-27T00:12:20.250Z,96337.69
2023-04-27T00:14:48.611Z,96347.00
2023-04-27T00:17:18.235Z,96346.13
2023-04-27T00:19:47.505Z,96345.59
2023-04-27T00:22:16.009Z,96346.59
2023-04-27T00:24:44.295Z,96347.63
2023-04-27T00:27:13.595Z,96336.78
2023-04-27T00:29:42.975Z,96334.41
2023-04-27T00:32:11.355Z,96341.28
2023-04-27T00:34:41.222Z,96341.72
2023-04-27T00:37:10.032Z,96339.06
2023-04-27T00:39:38.265Z,96338.50
2023-04-27T00:42:11.303Z,96338.81
2023-04-27T00:44:40.117Z,96339.34
2023-04-27T00:47:08.887Z,96347.41
2023-04-27T00:49:37.287Z,96340.19
2023-04-27T00:52:07.477Z,96340.34
2023-04-27T00:54:36.199Z,96342.47
2023-04-27T00:57:05.137Z,96336.69
2023-04-27T00:59:33.497Z,96335.13
2023-04-27T01:02:02.118Z,96338.16
2023-04-27T01:04:32.424Z,96346.03
2023-04-27T01:07:02.540Z,96342.66
2023-04-27T01:09:32.437Z,96331.66
2023-04-27T01:12:01.249Z,96340.25
2023-04-27T01:14:29.521Z,96335.69
2023-04-27T01:16:58.286Z,96343.00
2023-04-27T01:19:26.791Z,96338.41
2023-04-27T01:21:55.022Z,96346.53
2023-04-27T01:24:24.647Z,96336.19
2023-04-27T01:26:53.943Z,96338.91
2023-04-27T01:29:22.440Z,96339.69
2023-04-27T01:31:50.859Z,96338.31
2023-04-27T01:34:19.109Z,96334.00
2023-04-27T01:36:47.436Z,96338.19
2023-04-27T01:39:16.488Z,96338.66
2023-04-27T01:41:46.187Z,96339.78
2023-04-27T01:44:14.454Z,96346.44
2023-04-27T01:46:42.835Z,96343.88
2023-04-27T01:49:11.244Z,96347.69
2023-04-27T01:51:39.473Z,96348.56
2023-04-27T01:54:07.740Z,96343.06
2023-04-27T01:56:35.945Z,96347.34
2023-04-27T01:59:05.523Z,96350.56
2023-04-27T02:01:33.943Z,96346.78
2023-04-27T02:04:02.381Z,96350.41
2023-04-27T02:06:31.317Z,96350.75
2023-04-27T02:08:59.653Z,96350.41
2023-04-27T02:11:27.842Z,96349.84
2023-04-27T02:13:56.084Z,96356.19
2023-04-27T02:16:25.899Z,96349.16
2023-04-27T02:18:54.607Z,96356.88
2023-04-27T02:21:23.158Z,96357.03
2023-04-27T02:23:51.579Z,96353.69
2023-04-27T02:26:20.518Z,96349.84
2023-04-27T02:28:50.076Z,96357.25
2023-04-27T02:31:18.800Z,96355.47
2023-04-27T02:33:48.401Z,96354.06
2023-04-27T02:36:16.637Z,96361.97
2023-04-27T02:38:44.950Z,96363.94
2023-04-27T02:41:13.141Z,96361.19
2023-04-27T02:43:41.345Z,96363.88
2023-04-27T02:46:09.677Z,96355.84
2023-04-27T02:48:37.895Z,96355.72
2023-04-27T02:51:07.962Z,96360.59
2023-04-27T02:53:36.363Z,96365.38
2023-04-27T02:56:04.978Z,96350.63
2023-04-27T02:58:33.204Z,96358.66
2023-04-27T03:01:01.551Z,96360.03
2023-04-27T03:03:29.928Z,96357.56
2023-04-27T03:05:58.247Z,96364.38
2023-04-27T03:08:28.280Z,96359.28
2023-04-27T03:10:56.521Z,96355.88
2023-04-27T03:13:24.814Z,96358.47
2023-04-27T03:15:53.033Z,96357.81
2023-04-27T03:18:21.271Z,96355.94
2023-04-27T03:20:49.555Z,96359.41
2023-04-27T03:23:17.830Z,96371.78
2023-04-27T03:25:48.884Z,96367.53
2023-04-27T03:28:17.165Z,96372.34
2023-04-27T03:30:45.364Z,96378.09
2023-04-27T03:33:14.385Z,96375.13
2023-04-27T03:35:42.708Z,96375.31
2023-04-27T03:38:10.998Z,96382.63
2023-04-27T03:40:39.254Z,96377.16
2023-04-27T03:43:08.826Z,96377.97
2023-04-27T03:45:37.110Z,96378.34
2023-04-27T03:48:06.365Z,96385.94
2023-04-27T03:50:34.853Z,96386.97
2023-04-27T03:53:03.226Z,96386.63
2023-04-27T03:55:31.746Z,96387.44
2023-04-27T03:58:00.022Z,96393.41
2023-04-27T04:00:29.665Z,96399.03
2023-04-27T04:02:58.129Z,96398.56
2023-04-27T04:05:26.659Z,96407.16
2023-04-27T04:07:54.890Z,96406.66
2023-04-27T04:10:23.086Z,96413.94
2023-04-27T04:12:51.364Z,96416.75
2023-04-27T04:15:20.337Z,96423.00
2023-04-27T04:17:50.157Z,96416.50
2023-04-27T04:20:19.200Z,96416.41
2023-04-27T04:22:47.424Z,96422.88
2023-04-27T04:25:15.719Z,96412.63
2023-04-27T04:27:44.693Z,96417.75
2023-04-27T04:30:13.925Z,96418.41
2023-04-27T04:32:42.478Z,96428.66
2023-04-27T04:35:12.945Z,96425.66
2023-04-27T04:37:41.193Z,96422.38
2023-04-27T04:40:10.543Z,96433.41
2023-04-27T04:42:38.974Z,96428.00
2023-04-27T04:45:08.380Z,96432.81
2023-04-27T04:47:36.634Z,96435.56
2023-04-27T04:50:05.356Z,96427.78
2023-04-27T04:52:35.032Z,96429.41
2023-04-27T04:55:03.441Z,96427.09
2023-04-27T04:57:32.142Z,96432.44
2023-04-27T05:00:01.910Z,96440.28
2023-04-27T05:02:30.251Z,96436.59
2023-04-27T05:04:58.675Z,96434.94
2023-04-27T05:07:26.968Z,96442.41
2023-04-27T05:09:57.250Z,96445.09
2023-04-27T05:12:25.469Z,96441.19
2023-04-27T05:14:54.001Z,96438.28
2023-04-27T05:17:22.228Z,96444.81
2023-04-27T05:19:50.534Z,96451.69
2023-04-27T05:22:18.728Z,96454.22
2023-04-27T05:24:46.897Z,96446.81
2023-04-27T05:27:17.058Z,96447.91
2023-04-27T05:29:45.348Z,96440.97
2023-04-27T05:32:13.588Z,96450.53
2023-04-27T05:34:43.769Z,96448.53
2023-04-27T05:37:13.411Z,96445.63
2023-04-27T05:39:42.343Z,96449.66
2023-04-27T05:42:10.684Z,96448.38
2023-04-27T05:44:40.280Z,96449.72
2023-04-27T05:47:08.500Z,96459.38
2023-04-27T05:49:37.182Z,96453.69
2023-04-27T05:52:05.755Z,96456.31
2023-04-27T05:54:34.022Z,96470.91
2023-04-27T05:57:02.241Z,96471.41
2023-04-27T05:59:30.648Z,96468.88
2023-04-27T06:02:00.351Z,96469.78
2023-04-27T06:04:29.830Z,96461.06
2023-04-27T06:06:58.132Z,96465.16
2023-04-27T06:09:26.574Z,96466.88
2023-04-27T06:11:54.860Z,96459.34
2023-04-27T06:14:23.117Z,96459.16
2023-04-27T06:16:51.500Z,96459.22
2023-04-27T06:19:21.416Z,96461.47
2023-04-27T06:21:52.747Z,96451.41
2023-04-27T06:24:21.259Z,96449.00
2023-04-27T06:26:50.498Z,96440.78
2023-04-27T06:29:18.872Z,96454.97
2023-04-27T06:31:47.348Z,96459.00
2023-04-27T06:34:15.708Z,96460.44
2023-04-27T06:36:45.362Z,96459.09
2023-04-27T06:39:14.085Z,96463.94
2023-04-27T06:41:42.570Z,96467.78
2023-04-27T06:44:10.974Z,96459.84
2023-04-27T06:46:39.300Z,96468.94
2023-04-27T06:49:07.553Z,96473.84
2023-04-27T06:51:35.747Z,96475.78
2023-04-27T06:54:06.024Z,96475.69
2023-04-27T06:56:34.264Z,96471.34
2023-04-27T06:59:02.519Z,96470.22
2023-04-27T07:01:30.716Z,96480.34
2023-04-27T07:03:59.120Z,96477.44
2023-04-27T07:06:28.774Z,96468.75
2023-04-27T07:08:57.166Z,96479.38
2023-04-27T07:11:26.838Z,96472.22
2023-04-27T07:13:55.136Z,96473.09
2023-04-27T07:16:23.404Z,96470.56
2023-04-27T07:18:51.665Z,96468.50
2023-04-27T07:21:19.842Z,96476.72
2023-04-27T07:23:48.149Z,96471.81
2023-04-27T07:26:16.912Z,96474.38
2023-04-27T07:28:47.256Z,96462.06
2023-04-27T07:31:15.531Z,96459.63
2023-04-27T07:33:44.233Z,96472.25
2023-04-27T07:36:12.415Z,96465.16
2023-04-27T07:38:40.675Z,96474.25
2023-04-27T07:41:09.079Z,96472.81
2023-04-27T07:43:37.302Z,96477.31
2023-04-27T07:46:07.682Z,96475.78
2023-04-27T07:48:35.968Z,96481.50
2023-04-27T07:51:04.337Z,96473.88
2023-04-27T07:53:32.642Z,96473.84
2023-04-27T07:56:00.998Z,96475.78
2023-04-27T07:58:29.212Z,96480.44
2023-04-27T08:00:57.531Z,96484.44
2023-04-27T08:03:27.313Z,96476.59
2023-04-27T08:05:56.320Z,96479.66
2023-04-27T08:08:24.811Z,96478.47
2023-04-27T08:10:53.083Z,96481.97
2023-04-27T08:13:22.159Z,96478.31
2023-04-27T08:15:51.428Z,96477.00
2023-04-27T08:18:19.880Z,96487.13
2023-04-27T08:20:49.480Z,96484.31
2023-04-27T08:23:17.775Z,96484.88
2023-04-27T08:25:46.067Z,96489.84
2023-04-27T08:28:14.627Z,96487.44
2023-04-27T08:30:43.339Z,96493.75
2023-04-27T08:33:12.144Z,96485.94
2023-04-27T08:35:40.587Z,96489.91
2023-04-27T08:38:10.200Z,96486.97
2023-04-27T08:40:43.618Z,96475.47
2023-04-27T08:43:12.032Z,96487.28
2023-04-27T08:45:40.522Z,96476.13
2023-04-27T08:48:09.926Z,96481.09
2023-04-27T08:50:40.021Z,96483.47
2023-04-27T08:53:19.437Z,96474.56
2023-04-27T08:55:47.779Z,96482.78
2023-04-27T08:58:16.157Z,96488.22
2023-04-27T09:00:46.128Z,96478.34
2023-04-27T09:03:23.342Z,96473.59
2023-04-27T09:06:03.533Z,96487.88
2023-04-27T09:08:44.289Z,96476.66
2023-04-27T09:11:12.931Z,96478.50
2023-04-27T09:13:45.080Z,96475.28
2023-04-27T09:16:14.311Z,96472.22
2023-04-27T09:18:43.901Z,96471.53
2023-04-27T09:21:12.177Z,96477.16
2023-04-27T09:23:41.990Z,96478.66
2023-04-27T09:26:21.697Z,96467.31
2023-04-27T09:28:51.870Z,96472.31
2023-04-27T09:31:20.704Z,96465.22
2023-04-27T09:33:56.078Z,96450.41
2023-04-27T09:36:24.546Z,96454.97
2023-04-27T09:38:53.530Z,96452.47
2023-04-27T09:41:23.241Z,96463.25
2023-04-27T09:43:51.826Z,96460.78
2023-04-27T09:46:21.161Z,96446.44
2023-04-27T09:48:50.678Z,96451.31
2023-04-27T09:51:19.091Z,96450.81
2023-04-27T09:53:51.469Z,96447.00
2023-04-27T09:56:29.319Z,96433.47
2023-04-27T09:59:12.143Z,96443.78
2023-04-27T10:01:43.964Z,96442.19
2023-04-27T10:04:28.464Z,96436.47
2023-04-27T10:07:01.605Z,96438.09
2023-04-27T10:09:36.610Z,96440.84
2023-04-27T10:12:19.964Z,96434.59
2023-04-27T10:14:52.607Z,96436.63
2023-04-27T10:17:24.592Z,96433.97
2023-04-27T10:19:58.606Z,96433.53
2023-04-27T10:22:39.849Z,96434.41
2023-04-27T10:25:16.568Z,96432.28
2023-04-27T10:27:50.550Z,96433.84
2023-04-27T10:30:19.813Z,96425.53
2023-04-27T10:32:55.640Z,96422.63
2023-04-27T10:35:33.941Z,96425.66
2023-04-27T10:38:09.387Z,96419.00
2023-04-27T10:40:38.638Z,96422.69
2023-04-27T10:43:12.265Z,96423.19
2023-04-27T10:45:40.958Z,96423.13
2023-04-27T10:48:09.501Z,96412.78
2023-04-27T10:50:37.880Z,96427.88
2023-04-27T10:53:08.326Z,96417.75
2023-04-27T10:55:38.273Z,96417.00
2023-04-27T10:58:06.858Z,96408.03
2023-04-27T11:00:38.937Z,96413.94
2023-04-27T11:03:17.107Z,96420.47
2023-04-27T11:05:46.786Z,96416.09
2023-04-27T11:08:16.339Z,96418.50
2023-04-27T11:10:47.138Z,96410.56
2023-04-27T11:13:18.104Z,96416.25
2023-04-27T11:15:49.098Z,96414.06
2023-04-27T11:18:18.430Z,96413.03
2023-04-27T11:20:49.722Z,96423.09
2023-04-27T11:23:26.022Z,96423.47
2023-04-27T11:25:54.621Z,96412.91
2023-04-27T11:28:23.001Z,96412.13
2023-04-27T11:30:58.597Z,96420.97
2023-04-27T11:33:27.621Z,96418.38
2023-04-27T11:35:56.510Z,96414.41
2023-04-27T11:38:26.575Z,96410.22
2023-04-27T11:41:01.988Z,96422.34
2023-04-27T11:43:30.251Z,96418.34
2023-04-27T11:46:00.154Z,96424.72
2023-04-27T11:48:28.740Z,96414.72
2023-04-27T11:50:59.173Z,96422.56
2023-04-27T11:53:30.602Z,96415.53
2023-04-27T11:56:01.075Z,96423.81
2023-04-27T11:58:29.251Z,96415.00
2023-04-27T12:00:59.213Z,96414.78
2023-04-27T12:03:28.971Z,96410.84
2023-04-27T12:06:04.058Z,96419.66
2023-04-27T12:08:40.237Z,96415.56
2023-04-27T12:11:08.579Z,96416.34
2023-04-27T12:13:37.709Z,96411.16
2023-04-27T12:16:08.588Z,96419.25
2023-04-27T12:18:37.047Z,96426.84
2023-04-27T12:21:08.544Z,96413.22
2023-04-27T12:23:37.358Z,96413.06
2023-04-27T12:26:05.874Z,96424.75
2023-04-27T12:28:34.597Z,96426.03
2023-04-27T12:31:04.943Z,96419.94
2023-04-27T12:33:34.573Z,96413.63
2023-04-27T12:36:03.020Z,96413.47
2023-04-27T12:38:31.309Z,96411.97
2023-04-27T12:41:00.815Z,96411.34
2023-04-27T12:43:29.133Z,96419.00
2023-04-27T12:45:57.544Z,96414.41
2023-04-27T12:48:26.411Z,96405.38
2023-04-27T12:50:56.277Z,96396.53
2023-04-27T12:53:24.519Z,96403.41
2023-04-27T12:55:53.504Z,96403.13
2023-04-27T12:58:21.760Z,96401.72
2023-04-27T13:00:50.356Z,96400.47
2023-04-27T13:03:18.873Z,96394.31
2023-04-27T13:05:47.159Z,96388.84
2023-04-27T13:08:17.098Z,96402.31
2023-04-27T13:10:45.494Z,96398.72
2023-04-27T13:13:13.727Z,96382.25
2023-04-27T13:15:42.001Z,96387.66
2023-04-27T13:18:10.383Z,96392.09
2023-04-27T13:20:39.111Z,96392.13
2023-04-27T13:23:07.619Z,96383.50
2023-04-27T13:25:37.417Z,96378.53
2023-04-27T13:28:05.958Z,96380.56
2023-04-27T13:30:34.468Z,96378.31
2023-04-27T13:33:14.662Z,96376.69
2023-04-27T13:35:49.806Z,96384.72
2023-04-27T13:38:18.136Z,96383.09
2023-04-27T13:40:47.754Z,96373.88
2023-04-27T13:43:16.147Z,96382.84
2023-04-27T13:45:48.186Z,96379.88
2023-04-27T13:48:16.538Z,96371.59
2023-04-27T13:50:44.758Z,96371.56
2023-04-27T13:53:13.062Z,96364.22
2023-04-27T13:55:41.320Z,96363.06
2023-04-27T13:58:11.574Z,96360.09
2023-04-27T14:00:39.944Z,96368.81
2023-04-27T14:03:09.016Z,96359.44
2023-04-27T14:05:37.459Z,96359.28
2023-04-27T14:08:06.264Z,96359.91
2023-04-27T14:10:34.541Z,96357.53
2023-04-27T14:13:02.724Z,96355.00
2023-04-27T14:15:36.327Z,96348.94
2023-04-27T14:18:06.052Z,96353.38
2023-04-27T14:20:34.552Z,96355.88
2023-04-27T14:23:04.033Z,96353.63
2023-04-27T14:25:34.465Z,96355.13
2023-04-27T14:28:04.204Z,96345.38
2023-04-27T14:30:34.517Z,96347.91
2023-04-27T14:33:02.860Z,96347.81
2023-04-27T14:35:31.410Z,96348.72
2023-04-27T14:38:02.333Z,96349.50
2023-04-27T14:40:31.209Z,96346.63
2023-04-27T14:42:59.617Z,96348.84
2023-04-27T14:45:36.707Z,96342.88
2023-04-27T14:48:13.578Z,96348.03
2023-04-27T14:50:41.978Z,96357.63
2023-04-27T14:53:10.591Z,96359.91
2023-04-27T14:55:39.152Z,96356.13
2023-04-27T14:58:07.477Z,96351.75
2023-04-27T15:00:35.745Z,96344.84
2023-04-27T15:03:04.412Z,96357.00
2023-04-27T15:05:34.306Z,96334.00
2023-04-27T15:08:02.586Z,96348.03
2023-04-27T15:10:31.123Z,96349.25
2023-04-27T15:12:59.410Z,96348.06
2023-04-27T15:15:27.622Z,96354.63
2023-04-27T15:17:55.935Z,96359.47
2023-04-27T15:20:24.418Z,96365.91
2023-04-27T15:22:54.188Z,96357.91
2023-04-27T15:25:22.733Z,96353.69
2023-04-27T15:27:51.163Z,96349.75
2023-04-27T15:30:19.524Z,96347.66
2023-04-27T15:32:49.236Z,96358.84
2023-04-27T15:35:17.682Z,96355.47
2023-04-27T15:37:45.945Z,96341.03
2023-04-27T15:40:15.664Z,96349.09
2023-04-27T15:42:43.924Z,96345.25
2023-04-27T15:45:12.534Z,96337.41
2023-04-27T15:47:40.788Z,96337.75
2023-04-27T15:50:09.406Z,96335.75
2023-04-27T15:52:37.636Z,96335.69
2023-04-27T15:55:07.081Z,96343.44
2023-04-27T15:57:36.694Z,96336.00
2023-04-27T16:00:10.146Z,96340.81
2023-04-27T16:02:38.810Z,96341.63
2023-04-27T16:05:08.153Z,96336.44
2023-04-27T16:07:37.382Z,96334.03
2023-04-27T16:10:06.863Z,96326.56
2023-04-27T16:12:36.707Z,96331.47
2023-04-27T16:15:07.985Z,96330.19
2023-04-27T16:17:37.724Z,96329.25
2023-04-27T16:20:07.782Z,96326.50
2023-04-27T16:22:36.504Z,96328.72
2023-04-27T16:25:10.171Z,96329.78
2023-04-27T16:27:39.989Z,96334.69
2023-04-27T16:30:09.222Z,96329.47
2023-04-27T16:32:38.787Z,96333.31
2023-04-27T16:35:08.159Z,96336.66
2023-04-27T16:37:36.419Z,96330.19
2023-04-27T16:40:09.236Z,96320.50
2023-04-27T16:42:38.939Z,96328.78
2023-04-27T16:45:10.055Z,96324.53
2023-04-27T16:47:39.211Z,96332.75
2023-04-27T16:50:08.015Z,96340.94
2023-04-27T16:52:36.402Z,96334.19
2023-04-27T16:55:05.938Z,96341.03
2023-04-27T16:57:34.407Z,96337.00
2023-04-27T17:00:06.084Z,96333.19
2023-04-27T17:02:49.648Z,96328.56
2023-04-27T17:05:21.318Z,96320.19
2023-04-27T17:07:51.007Z,96328.72
2023-04-27T17:10:19.520Z,96325.38
2023-04-27T17:12:47.790Z,96331.28
2023-04-27T17:15:18.219Z,96324.28
2023-04-27T17:17:46.328Z,96321.69
2023-04-27T17:20:14.570Z,96328.59
2023-04-27T17:22:42.790Z,96325.81
2023-04-27T17:25:11.361Z,96329.91
2023-04-27T17:27:39.778Z,96322.63
2023-04-27T17:30:09.578Z,96319.94
2023-04-27T17:32:39.333Z,96314.75
2023-04-27T17:35:11.728Z,96307.50
2023-04-27T17:37:39.987Z,96306.50
2023-04-27T17:40:09.489Z,96308.75
2023-04-27T17:42:37.823Z,96319.03
2023-04-27T17:45:06.998Z,96318.78
2023-04-27T17:47:35.385Z,96317.66
2023-04-27T17:50:05.477Z,96320.19
2023-04-27T17:52:33.839Z,96317.97
2023-04-27T17:55:02.092Z,96319.75
2023-04-27T17:57:30.406Z,96320.38
2023-04-27T17:59:58.762Z,96326.03
2023-04-27T18:02:27.252Z,96324.84
2023-04-27T18:04:55.765Z,96327.09
2023-04-27T18:07:25.633Z,96333.88
2023-04-27T18:09:53.876Z,96330.19
2023-04-27T18:12:22.182Z,96329.38
2023-04-27T18:14:51.294Z,96334.25
2023-04-27T18:17:19.645Z,96328.88
2023-04-27T18:19:53.215Z,96339.63
2023-04-27T18:22:27.927Z,96338.91
2023-04-27T18:24:56.460Z,96343.94
2023-04-27T18:27:24.684Z,96347.09
2023-04-27T18:29:52.931Z,96342.34
2023-04-27T18:32:21.570Z,96345.22
2023-04-27T18:34:49.872Z,96351.47
2023-04-27T18:37:18.117Z,96347.09
2023-04-27T18:39:47.697Z,96357.31
2023-04-27T18:42:16.077Z,96362.66
2023-04-27T18:44:44.349Z,96360.56
2023-04-27T18:47:13.781Z,96360.16
2023-04-27T18:49:42.069Z,96366.19
2023-04-27T18:52:11.553Z,96367.22
2023-04-27T18:54:39.909Z,96363.28
2023-04-27T18:57:09.541Z,96366.59
2023-04-27T18:59:39.184Z,96367.19
2023-04-27T19:02:08.714Z,96369.06
2023-04-27T19:04:37.315Z,96372.44
2023-04-27T19:07:06.575Z,96377.81
2023-04-27T19:09:34.867Z,96376.97
2023-04-27T19:12:03.831Z,96372.72
2023-04-27T19:14:33.594Z,96381.81
2023-04-27T19:17:02.059Z,96374.00
2023-04-27T19:19:30.439Z,96381.41
2023-04-27T19:21:59.865Z,96383.38
2023-04-27T19:24:28.165Z,96383.34
2023-04-27T19:26:56.439Z,96382.78
2023-04-27T19:29:26.385Z,96379.38
2023-04-27T19:31:56.209Z,96380.19
2023-04-27T19:34:24.552Z,96385.59
2023-04-27T19:36:54.066Z,96382.28
2023-04-27T19:39:22.475Z,96384.50
2023-04-27T19:41:50.796Z,96378.41
2023-04-27T19:44:19.053Z,96378.41
2023-04-27T19:46:47.395Z,96381.06
2023-04-27T19:49:17.042Z,96381.63
2023-04-27T19:51:45.318Z,96388.16
2023-04-27T19:54:14.079Z,96381.69
2023-04-27T19:56:42.480Z,96383.28
2023-04-27T19:59:11.384Z,96387.06
2023-04-27T20:01:39.811Z,96380.75
2023-04-27T20:04:08.256Z,96378.81
2023-04-27T20:06:38.008Z,96382.56
2023-04-27T20:09:06.256Z,96382.00
2023-04-27T20:11:34.669Z,96384.22
2023-04-27T20:14:03.009Z,96382.31
2023-04-27T20:16:31.612Z,96381.78
2023-04-27T20:18:59.892Z,96380.94
2023-04-27T20:21:29.573Z,96385.56
2023-04-27T20:23:59.316Z,96378.69
2023-04-27T20:26:27.535Z,96380.16
2023-04-27T20:28:55.801Z,96381.28
2023-04-27T20:31:24.265Z,96373.81
2023-04-27T20:33:52.678Z,96376.75
2023-04-27T20:36:23.087Z,96372.75
2023-04-27T20:38:51.353Z,96367.63
2023-04-27T20:41:21.558Z,96366.59
2023-04-27T20:43:52.444Z,96369.53
2023-04-27T20:46:21.140Z,96365.06
2023-04-27T20:48:49.497Z,96355.84
2023-04-27T20:51:17.730Z,96365.31
2023-04-27T20:53:46.202Z,96357.06
2023-04-27T20:56:15.130Z,96359.16
2023-04-27T20:58:44.750Z,96354.75
2023-04-27T21:01:13.057Z,96363.00
2023-04-27T21:03:41.585Z,96366.25
2023-04-27T21:06:10.130Z,96361.19
2023-04-27T21:08:38.598Z,96362.41
2023-04-27T21:11:07.494Z,96356.88
2023-04-27T21:13:35.977Z,96356.13
2023-04-27T21:16:06.035Z,96353.84
2023-04-27T21:18:34.369Z,96363.22
2023-04-27T21:21:02.706Z,96365.34
2023-04-27T21:23:31.067Z,96361.69
2023-04-27T21:25:59.345Z,96362.53
2023-04-27T21:28:27.638Z,96357.22
2023-04-27T21:30:55.897Z,96352.47
2023-04-27T21:33:25.660Z,96354.56
2023-04-27T21:35:53.953Z,96346.72
2023-04-27T21:38:22.345Z,96339.84
2023-04-27T21:40:51.138Z,96338.13
2023-04-27T21:43:19.477Z,96346.34
2023-04-27T21:45:48.027Z,96344.81
2023-04-27T21:48:16.376Z,96337.75
2023-04-27T21:50:46.174Z,96342.06
2023-04-27T21:53:15.844Z,96346.88
2023-04-27T21:55:44.166Z,96342.78
2023-04-27T21:58:12.421Z,96342.78
2023-04-27T22:00:40.706Z,96339.41
2023-04-27T22:03:09.211Z,96338.28
2023-04-27T22:05:37.766Z,96340.41
2023-04-27T22:08:08.946Z,96342.16
2023-04-27T22:10:37.402Z,96348.78
2023-04-27T22:13:17.688Z,96339.97
2023-04-27T22:15:47.608Z,96333.81
2023-04-27T22:18:16.162Z,96332.34
2023-04-27T22:20:44.621Z,96326.47
2023-04-27T22:23:14.355Z,96329.19
2023-04-27T22:25:43.229Z,96337.00
2023-04-27T22:28:12.068Z,96335.78
2023-04-27T22:30:41.631Z,96335.19
2023-04-27T22:33:10.416Z,96335.53
2023-04-27T22:35:38.765Z,96334.13
2023-04-27T22:38:07.471Z,96337.50
2023-04-27T22:40:37.227Z,96332.78
2023-04-27T22:43:05.477Z,96335.28
2023-04-27T22:45:33.858Z,96336.88
2023-04-27T22:48:03.294Z,96332.72
2023-04-27T22:50:31.627Z,96336.25
2023-04-27T22:53:00.637Z,96333.13
2023-04-27T22:55:29.095Z,96323.19
2023-04-27T22:57:58.790Z,96333.53
2023-04-27T23:00:27.563Z,96321.16
2023-04-27T23:02:55.930Z,96320.34
2023-04-27T23:05:24.691Z,96314.78
2023-04-27T23:07:52.965Z,96321.63
2023-04-27T23:10:21.535Z,96321.06
2023-04-27T23:12:50.699Z,96319.88
2023-04-27T23:15:20.796Z,96314.94
2023-04-27T23:17:49.302Z,96304.09
2023-04-27T23:22:52.693Z,96308.44
2023-04-27T23:25:21.512Z,96299.63
2023-04-27T23:27:51.896Z,96304.75
2023-04-27T23:30:22.892Z,96304.16
2023-04-27T23:32:51.230Z,96302.09
2023-04-27T23:35:19.596Z,96291.53
2023-04-27T23:37:47.888Z,96294.47
2023-04-27T23:40:16.301Z,96294.81
2023-04-27T23:42:44.681Z,96302.00
2023-04-27T23:45:13.317Z,96302.91
2023-04-27T23:47:43.279Z,96299.75
2023-04-27T23:50:11.790Z,96300.00
2023-04-27T23:52:40.092Z,96302.28
2023-04-27T23:55:09.403Z,96300.50
2023-04-27T23:57:37.816Z,96296.94
